Schedule Details

Flight Number: CPX304
Departure: Tokyo-Narita International Airport (RJAA) at N/A
Arrival: Guam International Airport (PGUM) at N/A
Route: CUPID Y820 SUNNS Y820 ADKAK G223 DAGDA A337 NOGAK A337 TEGOD G205 GUYES


Current Weather Information
RJAA 192300Z VRB02KT 5000 BR FEW015 SCT/// 08/07 Q1010 BECMG 05005KT RMK 1SC015 A2984
PGUM 192254Z 05013KT 10SM FEW027 OVC065 27/26 A3002 RMK AO2 SLP159 T02670256 $